sensor_id;sensor_type;location;lat;lon;timestamp;P1;durP1;ratioP1;P2;durP2;ratioP2
11100;SDS011;5604;50.722;7.078;2022-07-06T00:01:14;4.13;;;1.50;;
11100;SDS011;5604;50.722;7.078;2022-07-06T00:03:42;1.67;;;1.33;;
11100;SDS011;5604;50.722;7.078;2022-07-06T00:06:11;5.10;;;1.80;;
11100;SDS011;5604;50.722;7.078;2022-07-06T00:08:39;4.27;;;1.80;;
11100;SDS011;5604;50.722;7.078;2022-07-06T00:11:09;2.90;;;1.90;;
11100;SDS011;5604;50.722;7.078;2022-07-06T00:13:37;4.93;;;2.10;;
11100;SDS011;5604;50.722;7.078;2022-07-06T00:16:06;3.10;;;1.80;;
11100;SDS011;5604;50.722;7.078;2022-07-06T00:18:34;2.23;;;1.90;;
11100;SDS011;5604;50.722;7.078;2022-07-06T00:21:02;2.50;;;1.93;;
11100;SDS011;5604;50.722;7.078;2022-07-06T00:23:30;4.13;;;2.07;;
11100;SDS011;5604;50.722;7.078;2022-07-06T00:25:59;3.43;;;1.97;;
11100;SDS011;5604;50.722;7.078;2022-07-06T00:28:28;3.23;;;2.00;;
11100;SDS011;5604;50.722;7.078;2022-07-06T00:30:57;4.30;;;2.07;;
11100;SDS011;5604;50.722;7.078;2022-07-06T00:33:25;6.73;;;2.20;;
11100;SDS011;5604;50.722;7.078;2022-07-06T00:35:53;6.47;;;2.40;;
11100;SDS011;5604;50.722;7.078;2022-07-06T00:38:21;2.27;;;1.80;;
11100;SDS011;5604;50.722;7.078;2022-07-06T00:40:50;3.27;;;2.00;;
11100;SDS011;5604;50.722;7.078;2022-07-06T00:43:18;5.87;;;1.90;;
11100;SDS011;5604;50.722;7.078;2022-07-06T00:45:48;4.70;;;1.67;;
11100;SDS011;5604;50.722;7.078;2022-07-06T00:48:16;4.63;;;1.87;;
11100;SDS011;5604;50.722;7.078;2022-07-06T00:50:45;3.57;;;1.83;;
11100;SDS011;5604;50.722;7.078;2022-07-06T00:53:13;3.20;;;1.90;;
11100;SDS011;5604;50.722;7.078;2022-07-06T00:55:42;3.27;;;1.97;;
11100;SDS011;5604;50.722;7.078;2022-07-06T00:58:10;4.10;;;2.00;;
11100;SDS011;5604;50.722;7.078;2022-07-06T01:00:38;2.83;;;1.40;;
11100;SDS011;5604;50.722;7.078;2022-07-06T01:03:13;2.87;;;1.83;;
11100;SDS011;5604;50.722;7.078;2022-07-06T01:05:41;3.53;;;1.70;;
11100;SDS011;5604;50.722;7.078;2022-07-06T01:08:09;4.53;;;1.97;;
11100;SDS011;5604;50.722;7.078;2022-07-06T01:10:37;3.03;;;1.70;;
11100;SDS011;5604;50.722;7.078;2022-07-06T01:13:06;5.73;;;1.60;;
11100;SDS011;5604;50.722;7.078;2022-07-06T01:15:34;2.37;;;1.97;;
11100;SDS011;5604;50.722;7.078;2022-07-06T01:18:03;4.70;;;1.80;;
11100;SDS011;5604;50.722;7.078;2022-07-06T01:20:34;3.47;;;1.80;;
11100;SDS011;5604;50.722;7.078;2022-07-06T01:23:02;2.03;;;1.70;;
11100;SDS011;5604;50.722;7.078;2022-07-06T01:25:30;2.03;;;1.57;;
11100;SDS011;5604;50.722;7.078;2022-07-06T01:27:59;2.33;;;1.63;;
11100;SDS011;5604;50.722;7.078;2022-07-06T01:30:29;3.90;;;1.50;;
11100;SDS011;5604;50.722;7.078;2022-07-06T01:32:57;3.73;;;1.70;;
11100;SDS011;5604;50.722;7.078;2022-07-06T01:35:26;2.63;;;1.93;;
11100;SDS011;5604;50.722;7.078;2022-07-06T01:37:56;6.97;;;2.07;;
11100;SDS011;5604;50.722;7.078;2022-07-06T01:40:24;2.53;;;1.80;;
11100;SDS011;5604;50.722;7.078;2022-07-06T01:42:53;4.67;;;2.30;;
11100;SDS011;5604;50.722;7.078;2022-07-06T01:45:22;3.97;;;2.00;;
11100;SDS011;5604;50.722;7.078;2022-07-06T01:47:50;3.50;;;1.67;;
11100;SDS011;5604;50.722;7.078;2022-07-06T01:50:18;2.60;;;1.90;;
11100;SDS011;5604;50.722;7.078;2022-07-06T01:52:46;4.23;;;1.87;;
11100;SDS011;5604;50.722;7.078;2022-07-06T01:55:18;2.93;;;1.93;;
11100;SDS011;5604;50.722;7.078;2022-07-06T01:57:46;3.33;;;2.07;;
11100;SDS011;5604;50.722;7.078;2022-07-06T02:00:14;4.60;;;2.20;;
11100;SDS011;5604;50.722;7.078;2022-07-06T02:02:47;4.00;;;1.97;;
11100;SDS011;5604;50.722;7.078;2022-07-06T02:05:15;2.83;;;2.10;;
11100;SDS011;5604;50.722;7.078;2022-07-06T02:07:44;4.53;;;1.97;;
11100;SDS011;5604;50.722;7.078;2022-07-06T02:10:12;5.17;;;2.03;;
11100;SDS011;5604;50.722;7.078;2022-07-06T02:12:43;3.50;;;2.17;;
11100;SDS011;5604;50.722;7.078;2022-07-06T02:15:12;3.03;;;2.10;;
11100;SDS011;5604;50.722;7.078;2022-07-06T02:17:40;6.97;;;2.57;;
11100;SDS011;5604;50.722;7.078;2022-07-06T02:20:09;3.80;;;2.40;;
11100;SDS011;5604;50.722;7.078;2022-07-06T02:22:37;3.50;;;2.40;;
11100;SDS011;5604;50.722;7.078;2022-07-06T02:25:07;4.00;;;2.13;;
11100;SDS011;5604;50.722;7.078;2022-07-06T02:27:36;3.77;;;2.10;;
11100;SDS011;5604;50.722;7.078;2022-07-06T02:30:09;2.90;;;2.37;;
11100;SDS011;5604;50.722;7.078;2022-07-06T02:32:38;5.73;;;2.20;;
11100;SDS011;5604;50.722;7.078;2022-07-06T02:35:07;2.27;;;2.07;;
11100;SDS011;5604;50.722;7.078;2022-07-06T02:37:35;4.70;;;2.47;;
11100;SDS011;5604;50.722;7.078;2022-07-06T02:40:04;2.60;;;2.40;;
11100;SDS011;5604;50.722;7.078;2022-07-06T02:42:33;3.70;;;2.40;;
11100;SDS011;5604;50.722;7.078;2022-07-06T02:45:01;3.73;;;2.30;;
11100;SDS011;5604;50.722;7.078;2022-07-06T02:47:31;5.40;;;2.27;;
11100;SDS011;5604;50.722;7.078;2022-07-06T02:49:59;6.83;;;2.43;;
11100;SDS011;5604;50.722;7.078;2022-07-06T02:52:28;2.73;;;2.40;;
11100;SDS011;5604;50.722;7.078;2022-07-06T02:55:02;7.30;;;2.57;;
11100;SDS011;5604;50.722;7.078;2022-07-06T02:57:30;2.50;;;2.20;;
11100;SDS011;5604;50.722;7.078;2022-07-06T02:59:59;4.13;;;2.80;;
11100;SDS011;5604;50.722;7.078;2022-07-06T03:02:29;3.30;;;2.30;;
11100;SDS011;5604;50.722;7.078;2022-07-06T03:04:59;3.60;;;2.50;;
11100;SDS011;5604;50.722;7.078;2022-07-06T03:07:28;4.00;;;2.30;;
11100;SDS011;5604;50.722;7.078;2022-07-06T03:09:57;6.13;;;2.60;;
11100;SDS011;5604;50.722;7.078;2022-07-06T03:12:26;3.27;;;2.17;;
11100;SDS011;5604;50.722;7.078;2022-07-06T03:14:55;2.90;;;2.47;;
11100;SDS011;5604;50.722;7.078;2022-07-06T03:17:23;4.13;;;2.50;;
11100;SDS011;5604;50.722;7.078;2022-07-06T03:19:52;4.37;;;2.40;;
11100;SDS011;5604;50.722;7.078;2022-07-06T03:22:22;3.93;;;2.43;;
11100;SDS011;5604;50.722;7.078;2022-07-06T03:24:50;3.60;;;2.40;;
11100;SDS011;5604;50.722;7.078;2022-07-06T03:27:18;3.07;;;2.30;;
11100;SDS011;5604;50.722;7.078;2022-07-06T03:29:46;3.17;;;2.60;;
11100;SDS011;5604;50.722;7.078;2022-07-06T03:32:15;4.87;;;3.47;;
11100;SDS011;5604;50.722;7.078;2022-07-06T03:34:44;5.00;;;2.50;;
11100;SDS011;5604;50.722;7.078;2022-07-06T03:37:13;3.97;;;2.47;;
11100;SDS011;5604;50.722;7.078;2022-07-06T03:39:43;5.53;;;2.63;;
11100;SDS011;5604;50.722;7.078;2022-07-06T03:42:11;6.13;;;3.10;;
11100;SDS011;5604;50.722;7.078;2022-07-06T03:44:40;7.13;;;3.07;;
11100;SDS011;5604;50.722;7.078;2022-07-06T03:47:09;3.47;;;2.70;;
11100;SDS011;5604;50.722;7.078;2022-07-06T03:49:38;6.97;;;2.77;;
11100;SDS011;5604;50.722;7.078;2022-07-06T03:52:08;3.97;;;2.30;;
11100;SDS011;5604;50.722;7.078;2022-07-06T03:54:44;7.50;;;2.50;;
11100;SDS011;5604;50.722;7.078;2022-07-06T03:57:17;5.13;;;2.53;;
11100;SDS011;5604;50.722;7.078;2022-07-06T03:59:45;3.20;;;2.57;;
11100;SDS011;5604;50.722;7.078;2022-07-06T04:02:14;5.47;;;2.20;;
11100;SDS011;5604;50.722;7.078;2022-07-06T04:04:42;3.30;;;2.07;;
11100;SDS011;5604;50.722;7.078;2022-07-06T04:07:11;2.40;;;2.20;;
11100;SDS011;5604;50.722;7.078;2022-07-06T04:09:39;3.67;;;2.40;;
11100;SDS011;5604;50.722;7.078;2022-07-06T04:12:09;4.07;;;2.40;;
11100;SDS011;5604;50.722;7.078;2022-07-06T04:14:42;3.83;;;2.10;;
11100;SDS011;5604;50.722;7.078;2022-07-06T04:17:10;5.83;;;2.90;;
11100;SDS011;5604;50.722;7.078;2022-07-06T04:19:56;3.77;;;2.70;;
11100;SDS011;5604;50.722;7.078;2022-07-06T04:22:25;2.83;;;2.57;;
11100;SDS011;5604;50.722;7.078;2022-07-06T04:24:53;2.73;;;2.50;;
11100;SDS011;5604;50.722;7.078;2022-07-06T04:27:24;5.57;;;2.60;;
11100;SDS011;5604;50.722;7.078;2022-07-06T04:29:52;4.10;;;2.87;;
11100;SDS011;5604;50.722;7.078;2022-07-06T04:32:21;7.17;;;2.60;;
11100;SDS011;5604;50.722;7.078;2022-07-06T04:34:52;3.97;;;2.73;;
11100;SDS011;5604;50.722;7.078;2022-07-06T04:37:20;4.23;;;2.60;;
11100;SDS011;5604;50.722;7.078;2022-07-06T04:39:49;4.60;;;2.80;;
11100;SDS011;5604;50.722;7.078;2022-07-06T04:42:17;4.23;;;2.50;;
11100;SDS011;5604;50.722;7.078;2022-07-06T04:44:47;6.47;;;2.70;;
11100;SDS011;5604;50.722;7.078;2022-07-06T04:47:15;4.60;;;2.80;;
11100;SDS011;5604;50.722;7.078;2022-07-06T04:49:44;5.23;;;2.70;;
11100;SDS011;5604;50.722;7.078;2022-07-06T04:52:13;2.93;;;2.50;;
11100;SDS011;5604;50.722;7.078;2022-07-06T04:54:45;4.43;;;2.40;;
11100;SDS011;5604;50.722;7.078;2022-07-06T04:57:13;6.80;;;2.73;;
11100;SDS011;5604;50.722;7.078;2022-07-06T04:59:42;6.80;;;2.47;;
11100;SDS011;5604;50.722;7.078;2022-07-06T05:02:12;4.10;;;2.50;;
11100;SDS011;5604;50.722;7.078;2022-07-06T05:04:43;5.40;;;2.70;;
11100;SDS011;5604;50.722;7.078;2022-07-06T05:07:12;4.33;;;2.93;;
11100;SDS011;5604;50.722;7.078;2022-07-06T05:09:40;3.73;;;2.47;;
11100;SDS011;5604;50.722;7.078;2022-07-06T05:12:16;6.10;;;2.70;;
11100;SDS011;5604;50.722;7.078;2022-07-06T05:14:44;4.13;;;2.90;;
11100;SDS011;5604;50.722;7.078;2022-07-06T05:17:16;4.07;;;2.47;;
11100;SDS011;5604;50.722;7.078;2022-07-06T05:20:07;5.27;;;2.80;;
11100;SDS011;5604;50.722;7.078;2022-07-06T05:22:39;2.90;;;2.13;;
11100;SDS011;5604;50.722;7.078;2022-07-06T05:25:14;5.80;;;2.37;;
11100;SDS011;5604;50.722;7.078;2022-07-06T05:27:43;4.43;;;2.97;;
11100;SDS011;5604;50.722;7.078;2022-07-06T05:30:12;5.43;;;2.77;;
11100;SDS011;5604;50.722;7.078;2022-07-06T05:32:44;4.63;;;2.77;;
11100;SDS011;5604;50.722;7.078;2022-07-06T05:35:12;6.17;;;2.50;;
11100;SDS011;5604;50.722;7.078;2022-07-06T05:38:02;6.60;;;2.80;;
11100;SDS011;5604;50.722;7.078;2022-07-06T05:40:31;4.20;;;2.67;;
11100;SDS011;5604;50.722;7.078;2022-07-06T05:43:00;4.67;;;2.83;;
11100;SDS011;5604;50.722;7.078;2022-07-06T05:45:28;5.20;;;2.77;;
11100;SDS011;5604;50.722;7.078;2022-07-06T05:47:59;5.47;;;2.90;;
11100;SDS011;5604;50.722;7.078;2022-07-06T05:50:44;3.40;;;2.47;;
11100;SDS011;5604;50.722;7.078;2022-07-06T05:53:13;3.77;;;2.40;;
11100;SDS011;5604;50.722;7.078;2022-07-06T05:55:48;6.17;;;2.70;;
11100;SDS011;5604;50.722;7.078;2022-07-06T05:58:16;3.77;;;2.10;;
11100;SDS011;5604;50.722;7.078;2022-07-06T06:00:46;4.07;;;2.20;;
11100;SDS011;5604;50.722;7.078;2022-07-06T06:03:19;5.13;;;2.20;;
11100;SDS011;5604;50.722;7.078;2022-07-06T06:05:48;4.33;;;3.07;;
11100;SDS011;5604;50.722;7.078;2022-07-06T06:08:19;5.47;;;2.33;;
11100;SDS011;5604;50.722;7.078;2022-07-06T06:10:49;4.33;;;2.30;;
11100;SDS011;5604;50.722;7.078;2022-07-06T06:13:20;6.27;;;2.37;;
11100;SDS011;5604;50.722;7.078;2022-07-06T06:15:49;3.47;;;2.10;;
11100;SDS011;5604;50.722;7.078;2022-07-06T06:18:19;5.27;;;2.33;;
11100;SDS011;5604;50.722;7.078;2022-07-06T06:20:48;6.17;;;2.00;;
11100;SDS011;5604;50.722;7.078;2022-07-06T06:23:17;3.93;;;1.87;;
11100;SDS011;5604;50.722;7.078;2022-07-06T06:25:45;5.07;;;2.40;;
11100;SDS011;5604;50.722;7.078;2022-07-06T06:28:13;4.30;;;2.60;;
11100;SDS011;5604;50.722;7.078;2022-07-06T06:30:41;5.23;;;2.63;;
11100;SDS011;5604;50.722;7.078;2022-07-06T06:33:10;3.27;;;2.10;;
11100;SDS011;5604;50.722;7.078;2022-07-06T06:35:43;6.77;;;2.50;;
11100;SDS011;5604;50.722;7.078;2022-07-06T06:38:13;6.00;;;2.37;;
11100;SDS011;5604;50.722;7.078;2022-07-06T06:40:41;5.60;;;2.70;;
11100;SDS011;5604;50.722;7.078;2022-07-06T06:43:10;4.80;;;2.33;;
11100;SDS011;5604;50.722;7.078;2022-07-06T06:46:02;6.83;;;2.53;;
11100;SDS011;5604;50.722;7.078;2022-07-06T06:48:30;5.00;;;2.60;;
11100;SDS011;5604;50.722;7.078;2022-07-06T06:51:00;5.07;;;2.50;;
11100;SDS011;5604;50.722;7.078;2022-07-06T06:53:29;3.63;;;2.17;;
11100;SDS011;5604;50.722;7.078;2022-07-06T06:56:05;3.43;;;2.53;;
11100;SDS011;5604;50.722;7.078;2022-07-06T06:58:35;3.77;;;2.37;;
11100;SDS011;5604;50.722;7.078;2022-07-06T07:01:23;6.97;;;2.50;;
11100;SDS011;5604;50.722;7.078;2022-07-06T07:03:52;3.73;;;2.27;;
11100;SDS011;5604;50.722;7.078;2022-07-06T07:06:23;3.67;;;2.77;;
11100;SDS011;5604;50.722;7.078;2022-07-06T07:08:51;6.47;;;2.70;;
11100;SDS011;5604;50.722;7.078;2022-07-06T07:11:21;5.17;;;2.60;;
11100;SDS011;5604;50.722;7.078;2022-07-06T07:13:49;6.37;;;2.37;;
11100;SDS011;5604;50.722;7.078;2022-07-06T07:16:17;4.60;;;2.33;;
11100;SDS011;5604;50.722;7.078;2022-07-06T07:18:46;6.03;;;3.00;;
11100;SDS011;5604;50.722;7.078;2022-07-06T07:21:14;4.70;;;2.33;;
11100;SDS011;5604;50.722;7.078;2022-07-06T07:23:44;5.60;;;3.20;;
11100;SDS011;5604;50.722;7.078;2022-07-06T07:26:12;6.60;;;2.70;;
11100;SDS011;5604;50.722;7.078;2022-07-06T07:28:40;5.77;;;2.90;;
11100;SDS011;5604;50.722;7.078;2022-07-06T07:31:09;4.70;;;2.90;;
11100;SDS011;5604;50.722;7.078;2022-07-06T07:33:37;5.47;;;2.60;;
11100;SDS011;5604;50.722;7.078;2022-07-06T07:36:06;4.23;;;2.00;;
11100;SDS011;5604;50.722;7.078;2022-07-06T07:38:34;4.20;;;1.90;;
11100;SDS011;5604;50.722;7.078;2022-07-06T07:41:04;4.07;;;1.40;;
11100;SDS011;5604;50.722;7.078;2022-07-06T07:43:32;3.97;;;1.40;;
11100;SDS011;5604;50.722;7.078;2022-07-06T07:46:01;4.47;;;2.10;;
11100;SDS011;5604;50.722;7.078;2022-07-06T07:48:29;3.33;;;1.73;;
11100;SDS011;5604;50.722;7.078;2022-07-06T07:50:58;3.97;;;1.47;;
11100;SDS011;5604;50.722;7.078;2022-07-06T07:53:26;7.97;;;2.17;;
11100;SDS011;5604;50.722;7.078;2022-07-06T07:55:54;4.27;;;2.10;;
11100;SDS011;5604;50.722;7.078;2022-07-06T07:58:24;4.73;;;2.30;;
11100;SDS011;5604;50.722;7.078;2022-07-06T08:00:54;3.47;;;1.83;;
11100;SDS011;5604;50.722;7.078;2022-07-06T08:03:22;5.33;;;2.70;;
11100;SDS011;5604;50.722;7.078;2022-07-06T08:05:51;5.10;;;2.23;;
11100;SDS011;5604;50.722;7.078;2022-07-06T08:08:20;4.00;;;2.03;;
11100;SDS011;5604;50.722;7.078;2022-07-06T08:10:48;3.63;;;2.27;;
11100;SDS011;5604;50.722;7.078;2022-07-06T08:13:38;4.93;;;1.93;;
11100;SDS011;5604;50.722;7.078;2022-07-06T08:16:07;3.20;;;1.70;;
11100;SDS011;5604;50.722;7.078;2022-07-06T08:18:36;4.27;;;2.30;;
11100;SDS011;5604;50.722;7.078;2022-07-06T08:21:05;4.30;;;2.20;;
11100;SDS011;5604;50.722;7.078;2022-07-06T08:23:54;3.53;;;1.60;;
11100;SDS011;5604;50.722;7.078;2022-07-06T08:26:23;3.70;;;1.40;;
11100;SDS011;5604;50.722;7.078;2022-07-06T08:28:53;4.00;;;1.83;;
11100;SDS011;5604;50.722;7.078;2022-07-06T08:31:22;4.13;;;1.70;;
11100;SDS011;5604;50.722;7.078;2022-07-06T08:34:11;8.30;;;2.00;;
11100;SDS011;5604;50.722;7.078;2022-07-06T08:36:39;3.50;;;1.70;;
11100;SDS011;5604;50.722;7.078;2022-07-06T08:39:07;4.57;;;1.97;;
11100;SDS011;5604;50.722;7.078;2022-07-06T08:41:36;7.33;;;1.10;;
11100;SDS011;5604;50.722;7.078;2022-07-06T08:44:07;2.30;;;1.57;;
11100;SDS011;5604;50.722;7.078;2022-07-06T08:46:37;2.27;;;1.23;;
11100;SDS011;5604;50.722;7.078;2022-07-06T08:49:07;2.70;;;1.10;;
11100;SDS011;5604;50.722;7.078;2022-07-06T08:51:36;4.40;;;1.40;;
11100;SDS011;5604;50.722;7.078;2022-07-06T08:54:05;2.00;;;1.30;;
11100;SDS011;5604;50.722;7.078;2022-07-06T08:56:34;3.43;;;1.27;;
11100;SDS011;5604;50.722;7.078;2022-07-06T08:59:02;1.90;;;1.27;;
11100;SDS011;5604;50.722;7.078;2022-07-06T09:01:31;2.10;;;0.80;;
11100;SDS011;5604;50.722;7.078;2022-07-06T09:04:00;3.97;;;1.33;;
11100;SDS011;5604;50.722;7.078;2022-07-06T09:06:31;3.47;;;1.27;;
11100;SDS011;5604;50.722;7.078;2022-07-06T09:08:59;4.80;;;1.40;;
11100;SDS011;5604;50.722;7.078;2022-07-06T09:11:33;2.80;;;1.50;;
11100;SDS011;5604;50.722;7.078;2022-07-06T09:14:02;5.77;;;1.50;;
11100;SDS011;5604;50.722;7.078;2022-07-06T09:16:32;2.40;;;1.57;;
11100;SDS011;5604;50.722;7.078;2022-07-06T09:19:05;3.20;;;1.10;;
11100;SDS011;5604;50.722;7.078;2022-07-06T09:21:45;3.07;;;1.73;;
11100;SDS011;5604;50.722;7.078;2022-07-06T09:24:13;2.87;;;1.30;;
11100;SDS011;5604;50.722;7.078;2022-07-06T09:26:41;1.70;;;1.10;;
11100;SDS011;5604;50.722;7.078;2022-07-06T09:29:10;2.83;;;1.13;;
11100;SDS011;5604;50.722;7.078;2022-07-06T09:31:40;1.53;;;0.90;;
11100;SDS011;5604;50.722;7.078;2022-07-06T09:34:08;3.00;;;1.20;;
11100;SDS011;5604;50.722;7.078;2022-07-06T09:36:42;2.07;;;1.17;;
11100;SDS011;5604;50.722;7.078;2022-07-06T09:39:19;4.40;;;1.33;;
11100;SDS011;5604;50.722;7.078;2022-07-06T09:41:50;3.17;;;1.23;;
11100;SDS011;5604;50.722;7.078;2022-07-06T09:44:23;2.10;;;1.27;;
11100;SDS011;5604;50.722;7.078;2022-07-06T09:46:55;1.47;;;1.10;;
11100;SDS011;5604;50.722;7.078;2022-07-06T09:49:24;1.93;;;1.30;;
11100;SDS011;5604;50.722;7.078;2022-07-06T09:51:54;1.00;;;0.90;;
11100;SDS011;5604;50.722;7.078;2022-07-06T09:54:24;2.93;;;1.13;;
11100;SDS011;5604;50.722;7.078;2022-07-06T09:56:53;2.30;;;1.50;;
11100;SDS011;5604;50.722;7.078;2022-07-06T09:59:22;1.87;;;1.10;;
11100;SDS011;5604;50.722;7.078;2022-07-06T10:01:51;5.83;;;1.40;;
11100;SDS011;5604;50.722;7.078;2022-07-06T10:04:23;3.13;;;1.27;;
11100;SDS011;5604;50.722;7.078;2022-07-06T10:06:53;1.93;;;1.20;;
11100;SDS011;5604;50.722;7.078;2022-07-06T10:09:22;3.10;;;1.13;;
11100;SDS011;5604;50.722;7.078;2022-07-06T10:11:54;3.67;;;1.17;;
11100;SDS011;5604;50.722;7.078;2022-07-06T10:14:24;3.03;;;1.20;;
11100;SDS011;5604;50.722;7.078;2022-07-06T10:16:54;2.70;;;1.23;;
11100;SDS011;5604;50.722;7.078;2022-07-06T10:19:24;1.00;;;0.73;;
11100;SDS011;5604;50.722;7.078;2022-07-06T10:21:53;1.77;;;1.10;;
11100;SDS011;5604;50.722;7.078;2022-07-06T10:24:24;1.83;;;1.10;;
11100;SDS011;5604;50.722;7.078;2022-07-06T10:26:53;2.97;;;1.20;;
11100;SDS011;5604;50.722;7.078;2022-07-06T10:29:23;2.03;;;1.30;;
11100;SDS011;5604;50.722;7.078;2022-07-06T10:31:52;2.90;;;1.40;;
11100;SDS011;5604;50.722;7.078;2022-07-06T10:34:22;1.90;;;1.40;;
11100;SDS011;5604;50.722;7.078;2022-07-06T10:36:51;3.53;;;1.30;;
11100;SDS011;5604;50.722;7.078;2022-07-06T10:39:34;4.20;;;1.53;;
11100;SDS011;5604;50.722;7.078;2022-07-06T10:42:39;1.10;;;1.00;;
11100;SDS011;5604;50.722;7.078;2022-07-06T10:45:12;2.00;;;1.47;;
11100;SDS011;5604;50.722;7.078;2022-07-06T10:47:42;1.20;;;1.10;;
11100;SDS011;5604;50.722;7.078;2022-07-06T10:50:11;4.17;;;1.10;;
11100;SDS011;5604;50.722;7.078;2022-07-06T10:52:53;2.17;;;1.17;;
11100;SDS011;5604;50.722;7.078;2022-07-06T10:55:29;3.20;;;1.10;;
11100;SDS011;5604;50.722;7.078;2022-07-06T10:57:58;2.53;;;1.20;;
11100;SDS011;5604;50.722;7.078;2022-07-06T11:00:42;1.70;;;1.20;;
11100;SDS011;5604;50.722;7.078;2022-07-06T11:03:31;1.23;;;1.13;;
11100;SDS011;5604;50.722;7.078;2022-07-06T11:06:01;2.00;;;1.33;;
11100;SDS011;5604;50.722;7.078;2022-07-06T11:08:44;1.47;;;1.37;;
11100;SDS011;5604;50.722;7.078;2022-07-06T11:11:15;1.13;;;0.80;;
11100;SDS011;5604;50.722;7.078;2022-07-06T11:13:48;5.43;;;1.83;;
11100;SDS011;5604;50.722;7.078;2022-07-06T11:16:18;2.13;;;1.20;;
11100;SDS011;5604;50.722;7.078;2022-07-06T11:18:49;1.20;;;1.10;;
11100;SDS011;5604;50.722;7.078;2022-07-06T11:21:19;2.80;;;1.30;;
11100;SDS011;5604;50.722;7.078;2022-07-06T11:23:49;1.43;;;1.07;;
11100;SDS011;5604;50.722;7.078;2022-07-06T11:26:18;1.67;;;1.00;;
11100;SDS011;5604;50.722;7.078;2022-07-06T11:28:47;2.03;;;1.10;;
11100;SDS011;5604;50.722;7.078;2022-07-06T11:31:16;2.20;;;1.33;;
11100;SDS011;5604;50.722;7.078;2022-07-06T11:33:45;2.97;;;1.40;;
11100;SDS011;5604;50.722;7.078;2022-07-06T11:36:16;2.27;;;1.30;;
11100;SDS011;5604;50.722;7.078;2022-07-06T11:38:46;1.33;;;1.13;;
11100;SDS011;5604;50.722;7.078;2022-07-06T11:41:15;2.07;;;1.30;;
11100;SDS011;5604;50.722;7.078;2022-07-06T11:43:45;2.90;;;1.30;;
11100;SDS011;5604;50.722;7.078;2022-07-06T11:46:18;2.97;;;1.80;;
11100;SDS011;5604;50.722;7.078;2022-07-06T11:48:51;1.97;;;1.50;;
11100;SDS011;5604;50.722;7.078;2022-07-06T11:51:24;1.27;;;1.00;;
11100;SDS011;5604;50.722;7.078;2022-07-06T11:53:54;1.90;;;0.90;;
11100;SDS011;5604;50.722;7.078;2022-07-06T11:56:25;2.37;;;0.97;;
11100;SDS011;5604;50.722;7.078;2022-07-06T11:58:55;2.20;;;1.00;;
11100;SDS011;5604;50.722;7.078;2022-07-06T12:01:25;2.63;;;0.97;;
11100;SDS011;5604;50.722;7.078;2022-07-06T12:03:57;1.80;;;0.90;;
11100;SDS011;5604;50.722;7.078;2022-07-06T12:06:27;2.13;;;1.13;;
11100;SDS011;5604;50.722;7.078;2022-07-06T12:08:56;4.37;;;1.10;;
11100;SDS011;5604;50.722;7.078;2022-07-06T12:11:26;1.37;;;1.00;;
11100;SDS011;5604;50.722;7.078;2022-07-06T12:13:56;2.43;;;1.07;;
11100;SDS011;5604;50.722;7.078;2022-07-06T12:16:29;4.23;;;0.90;;
11100;SDS011;5604;50.722;7.078;2022-07-06T12:18:58;1.67;;;1.00;;
11100;SDS011;5604;50.722;7.078;2022-07-06T12:21:34;1.60;;;0.90;;
11100;SDS011;5604;50.722;7.078;2022-07-06T12:24:05;3.20;;;1.23;;
11100;SDS011;5604;50.722;7.078;2022-07-06T12:26:38;2.33;;;0.90;;
11100;SDS011;5604;50.722;7.078;2022-07-06T12:29:08;1.70;;;1.00;;
11100;SDS011;5604;50.722;7.078;2022-07-06T12:31:37;1.83;;;1.00;;
11100;SDS011;5604;50.722;7.078;2022-07-06T12:34:11;0.93;;;0.80;;
11100;SDS011;5604;50.722;7.078;2022-07-06T12:36:43;2.37;;;1.60;;
11100;SDS011;5604;50.722;7.078;2022-07-06T12:39:14;1.67;;;0.90;;
11100;SDS011;5604;50.722;7.078;2022-07-06T12:41:44;2.50;;;1.10;;
11100;SDS011;5604;50.722;7.078;2022-07-06T12:44:16;3.97;;;1.10;;
11100;SDS011;5604;50.722;7.078;2022-07-06T12:46:45;3.30;;;1.10;;
11100;SDS011;5604;50.722;7.078;2022-07-06T12:49:18;1.77;;;1.13;;
11100;SDS011;5604;50.722;7.078;2022-07-06T12:51:55;1.03;;;0.80;;
11100;SDS011;5604;50.722;7.078;2022-07-06T12:54:28;2.53;;;1.30;;
11100;SDS011;5604;50.722;7.078;2022-07-06T12:57:02;2.80;;;1.00;;
11100;SDS011;5604;50.722;7.078;2022-07-06T12:59:33;3.47;;;1.10;;
11100;SDS011;5604;50.722;7.078;2022-07-06T13:02:03;3.03;;;1.07;;
11100;SDS011;5604;50.722;7.078;2022-07-06T13:04:32;0.93;;;0.83;;
11100;SDS011;5604;50.722;7.078;2022-07-06T13:07:02;4.80;;;1.10;;
11100;SDS011;5604;50.722;7.078;2022-07-06T13:09:33;2.57;;;1.20;;
11100;SDS011;5604;50.722;7.078;2022-07-06T13:12:02;2.47;;;1.00;;
11100;SDS011;5604;50.722;7.078;2022-07-06T13:14:31;0.90;;;0.80;;
11100;SDS011;5604;50.722;7.078;2022-07-06T13:16:59;1.13;;;0.80;;
11100;SDS011;5604;50.722;7.078;2022-07-06T13:19:28;2.33;;;0.90;;
11100;SDS011;5604;50.722;7.078;2022-07-06T13:21:57;2.00;;;1.03;;
11100;SDS011;5604;50.722;7.078;2022-07-06T13:24:27;2.73;;;0.97;;
11100;SDS011;5604;50.722;7.078;2022-07-06T13:26:58;2.00;;;1.17;;
11100;SDS011;5604;50.722;7.078;2022-07-06T13:29:27;2.63;;;1.10;;
11100;SDS011;5604;50.722;7.078;2022-07-06T13:31:55;2.83;;;1.00;;
11100;SDS011;5604;50.722;7.078;2022-07-06T13:34:23;2.07;;;1.13;;
11100;SDS011;5604;50.722;7.078;2022-07-06T13:36:52;3.47;;;1.10;;
11100;SDS011;5604;50.722;7.078;2022-07-06T13:39:20;4.17;;;1.27;;
11100;SDS011;5604;50.722;7.078;2022-07-06T13:41:49;1.03;;;0.90;;
11100;SDS011;5604;50.722;7.078;2022-07-06T13:44:18;1.70;;;1.00;;
11100;SDS011;5604;50.722;7.078;2022-07-06T13:46:46;1.87;;;1.00;;
11100;SDS011;5604;50.722;7.078;2022-07-06T13:49:14;3.13;;;0.90;;
11100;SDS011;5604;50.722;7.078;2022-07-06T13:51:43;2.20;;;0.90;;
11100;SDS011;5604;50.722;7.078;2022-07-06T13:54:12;4.43;;;1.23;;
11100;SDS011;5604;50.722;7.078;2022-07-06T13:56:41;2.57;;;1.00;;
11100;SDS011;5604;50.722;7.078;2022-07-06T13:59:11;2.00;;;1.00;;
11100;SDS011;5604;50.722;7.078;2022-07-06T14:01:39;3.97;;;1.23;;
11100;SDS011;5604;50.722;7.078;2022-07-06T14:04:08;1.40;;;0.90;;
11100;SDS011;5604;50.722;7.078;2022-07-06T14:06:36;1.87;;;0.80;;
11100;SDS011;5604;50.722;7.078;2022-07-06T14:09:04;4.23;;;0.90;;
11100;SDS011;5604;50.722;7.078;2022-07-06T14:11:32;1.70;;;0.90;;
11100;SDS011;5604;50.722;7.078;2022-07-06T14:14:03;1.40;;;1.00;;
11100;SDS011;5604;50.722;7.078;2022-07-06T14:16:34;1.77;;;0.90;;
11100;SDS011;5604;50.722;7.078;2022-07-06T14:19:03;3.17;;;1.10;;
11100;SDS011;5604;50.722;7.078;2022-07-06T14:21:46;1.80;;;1.00;;
11100;SDS011;5604;50.722;7.078;2022-07-06T14:24:15;4.07;;;1.10;;
11100;SDS011;5604;50.722;7.078;2022-07-06T14:26:43;3.97;;;1.10;;
11100;SDS011;5604;50.722;7.078;2022-07-06T14:29:11;3.37;;;1.03;;
11100;SDS011;5604;50.722;7.078;2022-07-06T14:31:41;1.03;;;0.87;;
11100;SDS011;5604;50.722;7.078;2022-07-06T14:34:10;2.23;;;0.90;;
11100;SDS011;5604;50.722;7.078;2022-07-06T14:36:38;2.13;;;0.80;;
11100;SDS011;5604;50.722;7.078;2022-07-06T14:39:07;7.00;;;1.17;;
11100;SDS011;5604;50.722;7.078;2022-07-06T14:41:35;4.57;;;0.90;;
11100;SDS011;5604;50.722;7.078;2022-07-06T14:44:04;2.00;;;0.83;;
11100;SDS011;5604;50.722;7.078;2022-07-06T14:46:32;5.67;;;1.20;;
11100;SDS011;5604;50.722;7.078;2022-07-06T14:49:03;3.00;;;0.93;;
11100;SDS011;5604;50.722;7.078;2022-07-06T14:51:31;1.27;;;0.80;;
11100;SDS011;5604;50.722;7.078;2022-07-06T14:53:59;1.93;;;0.80;;
11100;SDS011;5604;50.722;7.078;2022-07-06T14:56:28;1.90;;;0.90;;
11100;SDS011;5604;50.722;7.078;2022-07-06T14:58:57;4.00;;;0.63;;
11100;SDS011;5604;50.722;7.078;2022-07-06T15:01:45;1.07;;;0.90;;
11100;SDS011;5604;50.722;7.078;2022-07-06T15:04:15;2.60;;;0.90;;
11100;SDS011;5604;50.722;7.078;2022-07-06T15:06:44;1.77;;;1.00;;
11100;SDS011;5604;50.722;7.078;2022-07-06T15:09:22;1.83;;;0.70;;
11100;SDS011;5604;50.722;7.078;2022-07-06T15:11:52;1.63;;;0.70;;
11100;SDS011;5604;50.722;7.078;2022-07-06T15:14:24;1.13;;;0.90;;
11100;SDS011;5604;50.722;7.078;2022-07-06T15:16:53;3.13;;;0.87;;
11100;SDS011;5604;50.722;7.078;2022-07-06T15:19:23;1.07;;;0.70;;